sensor_id;sensor_type;location;lat;lon;timestamp;P1;durP1;ratioP1;P2;durP2;ratioP2
77432;SDS011;66752;48.576;8.876;2023-11-19T00:02:18;7.90;;;3.30;;
77432;SDS011;66752;48.576;8.876;2023-11-19T00:04:44;11.20;;;3.40;;
77432;SDS011;66752;48.576;8.876;2023-11-19T00:07:10;6.50;;;3.33;;
77432;SDS011;66752;48.576;8.876;2023-11-19T00:09:38;5.97;;;3.80;;
77432;SDS011;66752;48.576;8.876;2023-11-19T00:12:04;6.68;;;3.42;;
77432;SDS011;66752;48.576;8.876;2023-11-19T00:14:30;6.30;;;2.92;;
77432;SDS011;66752;48.576;8.876;2023-11-19T00:16:56;7.93;;;3.38;;
77432;SDS011;66752;48.576;8.876;2023-11-19T00:19:22;5.40;;;3.17;;
77432;SDS011;66752;48.576;8.876;2023-11-19T00:21:48;7.15;;;3.35;;
77432;SDS011;66752;48.576;8.876;2023-11-19T00:24:14;5.30;;;2.75;;
77432;SDS011;66752;48.576;8.876;2023-11-19T00:26:43;5.78;;;3.03;;
77432;SDS011;66752;48.576;8.876;2023-11-19T00:29:09;5.95;;;3.00;;
77432;SDS011;66752;48.576;8.876;2023-11-19T00:31:35;6.47;;;3.05;;
77432;SDS011;66752;48.576;8.876;2023-11-19T00:34:01;5.38;;;2.88;;
77432;SDS011;66752;48.576;8.876;2023-11-19T00:36:27;5.15;;;2.75;;
77432;SDS011;66752;48.576;8.876;2023-11-19T00:38:53;6.18;;;3.30;;
77432;SDS011;66752;48.576;8.876;2023-11-19T00:41:19;4.85;;;2.85;;
77432;SDS011;66752;48.576;8.876;2023-11-19T00:43:45;5.72;;;3.00;;
77432;SDS011;66752;48.576;8.876;2023-11-19T00:46:11;6.03;;;2.95;;
77432;SDS011;66752;48.576;8.876;2023-11-19T00:53:30;5.95;;;3.08;;
77432;SDS011;66752;48.576;8.876;2023-11-19T00:55:57;6.90;;;2.92;;
77432;SDS011;66752;48.576;8.876;2023-11-19T00:58:23;5.78;;;3.40;;
77432;SDS011;66752;48.576;8.876;2023-11-19T01:00:49;6.57;;;3.67;;
77432;SDS011;66752;48.576;8.876;2023-11-19T01:03:15;9.30;;;3.65;;
77432;SDS011;66752;48.576;8.876;2023-11-19T01:05:41;6.50;;;3.15;;
77432;SDS011;66752;48.576;8.876;2023-11-19T01:08:07;7.78;;;3.25;;
77432;SDS011;66752;48.576;8.876;2023-11-19T01:15:25;6.85;;;3.15;;
77432;SDS011;66752;48.576;8.876;2023-11-19T01:17:51;5.55;;;2.65;;
77432;SDS011;66752;48.576;8.876;2023-11-19T01:20:17;5.75;;;2.80;;
77432;SDS011;66752;48.576;8.876;2023-11-19T01:22:45;7.43;;;3.22;;
77432;SDS011;66752;48.576;8.876;2023-11-19T01:25:11;5.80;;;3.00;;
77432;SDS011;66752;48.576;8.876;2023-11-19T01:27:36;6.07;;;2.92;;
77432;SDS011;66752;48.576;8.876;2023-11-19T01:30:02;4.38;;;2.17;;
77432;SDS011;66752;48.576;8.876;2023-11-19T01:32:30;6.53;;;2.65;;
77432;SDS011;66752;48.576;8.876;2023-11-19T01:34:57;5.38;;;2.20;;
77432;SDS011;66752;48.576;8.876;2023-11-19T01:37:23;5.53;;;2.58;;
77432;SDS011;66752;48.576;8.876;2023-11-19T01:39:49;4.57;;;2.08;;
77432;SDS011;66752;48.576;8.876;2023-11-19T01:42:15;5.68;;;2.20;;
77432;SDS011;66752;48.576;8.876;2023-11-19T01:44:41;5.78;;;2.20;;
77432;SDS011;66752;48.576;8.876;2023-11-19T01:47:07;5.05;;;2.60;;
77432;SDS011;66752;48.576;8.876;2023-11-19T01:49:33;5.10;;;2.10;;
77432;SDS011;66752;48.576;8.876;2023-11-19T01:52:00;5.28;;;2.38;;
77432;SDS011;66752;48.576;8.876;2023-11-19T01:54:26;5.13;;;2.65;;
77432;SDS011;66752;48.576;8.876;2023-11-19T01:56:53;6.55;;;2.40;;
77432;SDS011;66752;48.576;8.876;2023-11-19T01:59:21;5.40;;;2.58;;
77432;SDS011;66752;48.576;8.876;2023-11-19T02:01:51;5.00;;;2.85;;
77432;SDS011;66752;48.576;8.876;2023-11-19T02:04:17;6.15;;;2.97;;
77432;SDS011;66752;48.576;8.876;2023-11-19T02:06:43;6.68;;;3.40;;
77432;SDS011;66752;48.576;8.876;2023-11-19T02:09:11;5.82;;;2.83;;
77432;SDS011;66752;48.576;8.876;2023-11-19T02:11:39;5.95;;;2.50;;
77432;SDS011;66752;48.576;8.876;2023-11-19T02:14:05;6.00;;;2.47;;
77432;SDS011;66752;48.576;8.876;2023-11-19T02:16:31;5.60;;;2.38;;
77432;SDS011;66752;48.576;8.876;2023-11-19T02:18:57;4.95;;;2.20;;
77432;SDS011;66752;48.576;8.876;2023-11-19T02:21:23;5.70;;;2.00;;
77432;SDS011;66752;48.576;8.876;2023-11-19T02:23:49;5.32;;;2.22;;
77432;SDS011;66752;48.576;8.876;2023-11-19T02:26:18;5.82;;;2.10;;
77432;SDS011;66752;48.576;8.876;2023-11-19T02:28:44;4.07;;;1.88;;
77432;SDS011;66752;48.576;8.876;2023-11-19T02:31:10;4.50;;;1.98;;
77432;SDS011;66752;48.576;8.876;2023-11-19T02:33:37;3.95;;;1.80;;
77432;SDS011;66752;48.576;8.876;2023-11-19T02:36:04;6.10;;;2.17;;
77432;SDS011;66752;48.576;8.876;2023-11-19T02:38:31;4.25;;;2.00;;
77432;SDS011;66752;48.576;8.876;2023-11-19T02:40:57;5.10;;;1.70;;
77432;SDS011;66752;48.576;8.876;2023-11-19T02:43:23;3.83;;;1.67;;
77432;SDS011;66752;48.576;8.876;2023-11-19T02:45:49;4.65;;;2.20;;
77432;SDS011;66752;48.576;8.876;2023-11-19T02:48:15;3.97;;;1.75;;
77432;SDS011;66752;48.576;8.876;2023-11-19T02:50:42;3.30;;;1.50;;
77432;SDS011;66752;48.576;8.876;2023-11-19T02:53:08;3.95;;;1.63;;
77432;SDS011;66752;48.576;8.876;2023-11-19T02:55:34;4.80;;;2.20;;
77432;SDS011;66752;48.576;8.876;2023-11-19T02:58:03;4.00;;;2.03;;
77432;SDS011;66752;48.576;8.876;2023-11-19T03:00:45;4.38;;;2.22;;
77432;SDS011;66752;48.576;8.876;2023-11-19T03:03:22;4.68;;;1.83;;
77432;SDS011;66752;48.576;8.876;2023-11-19T03:05:53;4.75;;;1.90;;
77432;SDS011;66752;48.576;8.876;2023-11-19T03:08:20;3.83;;;1.60;;
77432;SDS011;66752;48.576;8.876;2023-11-19T03:10:47;4.80;;;1.70;;
77432;SDS011;66752;48.576;8.876;2023-11-19T03:13:13;4.93;;;1.60;;
77432;SDS011;66752;48.576;8.876;2023-11-19T03:15:40;3.40;;;1.40;;
77432;SDS011;66752;48.576;8.876;2023-11-19T03:18:05;5.03;;;1.58;;
77432;SDS011;66752;48.576;8.876;2023-11-19T03:20:32;3.67;;;1.48;;
77432;SDS011;66752;48.576;8.876;2023-11-19T03:22:58;3.72;;;1.40;;
77432;SDS011;66752;48.576;8.876;2023-11-19T03:25:26;4.93;;;2.33;;
77432;SDS011;66752;48.576;8.876;2023-11-19T03:27:58;4.43;;;1.63;;
77432;SDS011;66752;48.576;8.876;2023-11-19T03:30:23;4.57;;;1.98;;
77432;SDS011;66752;48.576;8.876;2023-11-19T03:32:49;5.70;;;2.30;;
77432;SDS011;66752;48.576;8.876;2023-11-19T03:35:16;4.05;;;1.50;;
77432;SDS011;66752;48.576;8.876;2023-11-19T03:37:42;4.10;;;1.58;;
77432;SDS011;66752;48.576;8.876;2023-11-19T03:40:09;4.13;;;1.70;;
77432;SDS011;66752;48.576;8.876;2023-11-19T03:42:35;3.42;;;1.50;;
77432;SDS011;66752;48.576;8.876;2023-11-19T03:45:01;3.22;;;1.25;;
77432;SDS011;66752;48.576;8.876;2023-11-19T03:47:29;3.92;;;1.48;;
77432;SDS011;66752;48.576;8.876;2023-11-19T03:49:55;3.90;;;1.50;;
77432;SDS011;66752;48.576;8.876;2023-11-19T03:52:21;3.60;;;1.38;;
77432;SDS011;66752;48.576;8.876;2023-11-19T03:54:47;4.93;;;1.27;;
77432;SDS011;66752;48.576;8.876;2023-11-19T03:57:13;3.90;;;1.40;;
77432;SDS011;66752;48.576;8.876;2023-11-19T03:59:40;4.38;;;1.48;;
77432;SDS011;66752;48.576;8.876;2023-11-19T04:02:07;3.25;;;1.20;;
77432;SDS011;66752;48.576;8.876;2023-11-19T04:04:33;4.65;;;1.20;;
77432;SDS011;66752;48.576;8.876;2023-11-19T04:07:00;2.50;;;0.88;;
77432;SDS011;66752;48.576;8.876;2023-11-19T04:09:27;3.15;;;1.25;;
77432;SDS011;66752;48.576;8.876;2023-11-19T04:11:53;3.67;;;1.17;;
77432;SDS011;66752;48.576;8.876;2023-11-19T04:14:19;3.33;;;0.85;;
77432;SDS011;66752;48.576;8.876;2023-11-19T04:16:45;3.20;;;0.70;;
77432;SDS011;66752;48.576;8.876;2023-11-19T04:19:11;0.50;;;0.30;;
77432;SDS011;66752;48.576;8.876;2023-11-19T04:21:40;1.05;;;0.32;;
77432;SDS011;66752;48.576;8.876;2023-11-19T04:24:09;0.65;;;0.30;;
77432;SDS011;66752;48.576;8.876;2023-11-19T04:26:42;1.35;;;0.40;;
77432;SDS011;66752;48.576;8.876;2023-11-19T04:29:10;0.20;;;0.20;;
77432;SDS011;66752;48.576;8.876;2023-11-19T04:31:36;0.47;;;0.30;;
77432;SDS011;66752;48.576;8.876;2023-11-19T04:34:03;0.70;;;0.30;;
77432;SDS011;66752;48.576;8.876;2023-11-19T04:36:28;1.38;;;0.50;;
77432;SDS011;66752;48.576;8.876;2023-11-19T04:38:55;0.40;;;0.40;;
77432;SDS011;66752;48.576;8.876;2023-11-19T04:41:21;1.65;;;0.43;;
77432;SDS011;66752;48.576;8.876;2023-11-19T04:43:46;0.88;;;0.30;;
77432;SDS011;66752;48.576;8.876;2023-11-19T04:46:12;0.95;;;0.38;;
77432;SDS011;66752;48.576;8.876;2023-11-19T04:48:38;1.17;;;0.50;;
77432;SDS011;66752;48.576;8.876;2023-11-19T04:51:04;1.00;;;0.50;;
77432;SDS011;66752;48.576;8.876;2023-11-19T04:53:30;1.38;;;0.40;;
77432;SDS011;66752;48.576;8.876;2023-11-19T04:55:56;0.98;;;0.43;;
77432;SDS011;66752;48.576;8.876;2023-11-19T04:58:23;1.33;;;0.60;;
77432;SDS011;66752;48.576;8.876;2023-11-19T05:00:48;1.00;;;0.50;;
77432;SDS011;66752;48.576;8.876;2023-11-19T05:03:14;1.42;;;0.47;;
77432;SDS011;66752;48.576;8.876;2023-11-19T05:05:40;0.73;;;0.40;;
77432;SDS011;66752;48.576;8.876;2023-11-19T05:08:06;1.02;;;0.40;;
77432;SDS011;66752;48.576;8.876;2023-11-19T05:10:32;0.43;;;0.40;;
77432;SDS011;66752;48.576;8.876;2023-11-19T05:12:58;0.73;;;0.30;;
77432;SDS011;66752;48.576;8.876;2023-11-19T05:15:24;0.38;;;0.32;;
77432;SDS011;66752;48.576;8.876;2023-11-19T05:17:50;0.43;;;0.20;;
77432;SDS011;66752;48.576;8.876;2023-11-19T05:20:16;1.02;;;0.43;;
77432;SDS011;66752;48.576;8.876;2023-11-19T05:22:42;1.63;;;0.63;;
77432;SDS011;66752;48.576;8.876;2023-11-19T05:25:09;1.30;;;0.47;;
77432;SDS011;66752;48.576;8.876;2023-11-19T05:30:01;1.58;;;0.40;;
77432;SDS011;66752;48.576;8.876;2023-11-19T05:32:27;0.68;;;0.30;;
77432;SDS011;66752;48.576;8.876;2023-11-19T05:34:53;2.10;;;0.50;;
77432;SDS011;66752;48.576;8.876;2023-11-19T05:37:19;0.85;;;0.30;;
77432;SDS011;66752;48.576;8.876;2023-11-19T05:39:45;0.73;;;0.40;;
77432;SDS011;66752;48.576;8.876;2023-11-19T05:42:11;0.52;;;0.30;;
77432;SDS011;66752;48.576;8.876;2023-11-19T05:44:37;1.48;;;0.40;;
77432;SDS011;66752;48.576;8.876;2023-11-19T05:47:03;1.38;;;0.50;;
77432;SDS011;66752;48.576;8.876;2023-11-19T05:49:29;1.70;;;0.55;;
77432;SDS011;66752;48.576;8.876;2023-11-19T05:51:55;1.80;;;0.57;;
77432;SDS011;66752;48.576;8.876;2023-11-19T05:54:21;2.08;;;0.77;;
77432;SDS011;66752;48.576;8.876;2023-11-19T05:56:48;0.95;;;0.50;;
77432;SDS011;66752;48.576;8.876;2023-11-19T06:01:42;1.58;;;0.45;;
77432;SDS011;66752;48.576;8.876;2023-11-19T06:04:08;1.65;;;0.50;;
77432;SDS011;66752;48.576;8.876;2023-11-19T06:06:35;1.00;;;0.38;;
77432;SDS011;66752;48.576;8.876;2023-11-19T06:09:01;1.05;;;0.40;;
77432;SDS011;66752;48.576;8.876;2023-11-19T06:11:27;1.08;;;0.43;;
77432;SDS011;66752;48.576;8.876;2023-11-19T06:13:53;0.65;;;0.35;;
77432;SDS011;66752;48.576;8.876;2023-11-19T06:16:19;0.98;;;0.40;;
77432;SDS011;66752;48.576;8.876;2023-11-19T06:18:46;3.40;;;0.70;;
77432;SDS011;66752;48.576;8.876;2023-11-19T06:21:12;1.48;;;0.30;;
77432;SDS011;66752;48.576;8.876;2023-11-19T06:23:38;0.70;;;0.40;;
77432;SDS011;66752;48.576;8.876;2023-11-19T06:26:04;0.95;;;0.52;;
77432;SDS011;66752;48.576;8.876;2023-11-19T06:28:30;0.57;;;0.40;;
77432;SDS011;66752;48.576;8.876;2023-11-19T06:30:56;0.65;;;0.40;;
77432;SDS011;66752;48.576;8.876;2023-11-19T06:35:48;0.82;;;0.50;;
77432;SDS011;66752;48.576;8.876;2023-11-19T06:38:14;2.38;;;0.68;;
77432;SDS011;66752;48.576;8.876;2023-11-19T06:40:40;1.05;;;0.40;;
77432;SDS011;66752;48.576;8.876;2023-11-19T06:43:06;2.03;;;0.57;;
77432;SDS011;66752;48.576;8.876;2023-11-19T06:45:34;1.38;;;0.50;;
77432;SDS011;66752;48.576;8.876;2023-11-19T06:48:01;1.35;;;0.60;;
77432;SDS011;66752;48.576;8.876;2023-11-19T06:50:29;1.25;;;0.50;;
77432;SDS011;66752;48.576;8.876;2023-11-19T06:52:55;1.98;;;0.60;;
77432;SDS011;66752;48.576;8.876;2023-11-19T06:55:21;1.52;;;0.50;;
77432;SDS011;66752;48.576;8.876;2023-11-19T06:57:47;2.38;;;0.63;;
77432;SDS011;66752;48.576;8.876;2023-11-19T07:00:13;1.35;;;0.52;;
77432;SDS011;66752;48.576;8.876;2023-11-19T07:02:39;2.40;;;0.80;;
77432;SDS011;66752;48.576;8.876;2023-11-19T07:05:05;1.67;;;0.55;;
77432;SDS011;66752;48.576;8.876;2023-11-19T07:07:33;2.30;;;0.80;;
77432;SDS011;66752;48.576;8.876;2023-11-19T07:09:59;1.58;;;0.60;;
77432;SDS011;66752;48.576;8.876;2023-11-19T07:12:25;2.20;;;0.80;;
77432;SDS011;66752;48.576;8.876;2023-11-19T07:14:54;2.40;;;0.82;;
77432;SDS011;66752;48.576;8.876;2023-11-19T07:17:20;1.85;;;0.65;;
77432;SDS011;66752;48.576;8.876;2023-11-19T07:19:46;3.58;;;0.77;;
77432;SDS011;66752;48.576;8.876;2023-11-19T07:22:13;3.28;;;0.90;;
77432;SDS011;66752;48.576;8.876;2023-11-19T07:24:40;2.97;;;1.08;;
77432;SDS011;66752;48.576;8.876;2023-11-19T07:27:07;1.98;;;0.77;;
77432;SDS011;66752;48.576;8.876;2023-11-19T07:29:34;2.72;;;0.90;;
77432;SDS011;66752;48.576;8.876;2023-11-19T07:32:00;3.50;;;1.50;;
77432;SDS011;66752;48.576;8.876;2023-11-19T07:34:27;3.45;;;1.00;;
77432;SDS011;66752;48.576;8.876;2023-11-19T07:36:54;3.50;;;1.02;;
77432;SDS011;66752;48.576;8.876;2023-11-19T07:39:24;1.73;;;0.80;;
77432;SDS011;66752;48.576;8.876;2023-11-19T07:41:50;3.60;;;1.00;;
77432;SDS011;66752;48.576;8.876;2023-11-19T07:44:16;3.58;;;1.33;;
77432;SDS011;66752;48.576;8.876;2023-11-19T07:46:42;3.00;;;1.20;;
77432;SDS011;66752;48.576;8.876;2023-11-19T07:49:09;3.53;;;1.40;;
77432;SDS011;66752;48.576;8.876;2023-11-19T07:51:35;3.05;;;1.30;;
77432;SDS011;66752;48.576;8.876;2023-11-19T07:54:01;2.53;;;0.93;;
77432;SDS011;66752;48.576;8.876;2023-11-19T07:56:27;3.25;;;1.42;;
77432;SDS011;66752;48.576;8.876;2023-11-19T07:58:53;3.40;;;1.30;;
77432;SDS011;66752;48.576;8.876;2023-11-19T08:01:19;6.57;;;1.15;;
77432;SDS011;66752;48.576;8.876;2023-11-19T08:03:45;1.52;;;0.60;;
77432;SDS011;66752;48.576;8.876;2023-11-19T08:06:11;2.35;;;1.00;;
77432;SDS011;66752;48.576;8.876;2023-11-19T08:08:37;2.03;;;0.70;;
77432;SDS011;66752;48.576;8.876;2023-11-19T08:11:04;1.38;;;0.70;;
77432;SDS011;66752;48.576;8.876;2023-11-19T08:13:30;1.90;;;0.70;;
77432;SDS011;66752;48.576;8.876;2023-11-19T08:15:56;3.30;;;0.70;;
77432;SDS011;66752;48.576;8.876;2023-11-19T08:18:23;2.40;;;0.90;;
77432;SDS011;66752;48.576;8.876;2023-11-19T08:20:49;11.00;;;4.97;;
77432;SDS011;66752;48.576;8.876;2023-11-19T08:23:18;4.50;;;2.08;;
77432;SDS011;66752;48.576;8.876;2023-11-19T08:25:44;3.92;;;1.30;;
77432;SDS011;66752;48.576;8.876;2023-11-19T08:28:10;3.47;;;1.15;;
77432;SDS011;66752;48.576;8.876;2023-11-19T08:30:36;2.58;;;0.90;;
77432;SDS011;66752;48.576;8.876;2023-11-19T08:33:02;3.10;;;1.30;;
77432;SDS011;66752;48.576;8.876;2023-11-19T08:35:28;2.70;;;0.90;;
77432;SDS011;66752;48.576;8.876;2023-11-19T08:37:55;3.42;;;1.20;;
77432;SDS011;66752;48.576;8.876;2023-11-19T08:40:22;4.65;;;1.38;;
77432;SDS011;66752;48.576;8.876;2023-11-19T08:42:48;4.07;;;1.40;;
77432;SDS011;66752;48.576;8.876;2023-11-19T08:45:14;5.63;;;1.45;;
77432;SDS011;66752;48.576;8.876;2023-11-19T08:47:40;7.47;;;2.20;;
77432;SDS011;66752;48.576;8.876;2023-11-19T08:50:06;3.67;;;1.40;;
77432;SDS011;66752;48.576;8.876;2023-11-19T08:52:33;3.95;;;1.38;;
77432;SDS011;66752;48.576;8.876;2023-11-19T08:54:59;4.55;;;1.73;;
77432;SDS011;66752;48.576;8.876;2023-11-19T08:57:25;3.30;;;1.13;;
77432;SDS011;66752;48.576;8.876;2023-11-19T08:59:51;2.75;;;1.05;;
77432;SDS011;66752;48.576;8.876;2023-11-19T09:02:17;2.97;;;1.00;;
77432;SDS011;66752;48.576;8.876;2023-11-19T09:04:43;5.00;;;1.38;;
77432;SDS011;66752;48.576;8.876;2023-11-19T09:07:09;3.10;;;1.33;;
77432;SDS011;66752;48.576;8.876;2023-11-19T09:09:35;3.67;;;1.20;;
77432;SDS011;66752;48.576;8.876;2023-11-19T09:12:02;3.40;;;1.20;;
77432;SDS011;66752;48.576;8.876;2023-11-19T09:14:28;3.40;;;1.55;;
77432;SDS011;66752;48.576;8.876;2023-11-19T09:19:21;1.75;;;0.70;;
77432;SDS011;66752;48.576;8.876;2023-11-19T09:21:47;4.10;;;1.25;;
77432;SDS011;66752;48.576;8.876;2023-11-19T09:24:14;2.60;;;0.70;;
77432;SDS011;66752;48.576;8.876;2023-11-19T09:26:39;2.15;;;0.73;;
77432;SDS011;66752;48.576;8.876;2023-11-19T09:29:06;3.47;;;0.80;;
77432;SDS011;66752;48.576;8.876;2023-11-19T09:31:32;2.53;;;0.80;;
77432;SDS011;66752;48.576;8.876;2023-11-19T09:36:25;1.83;;;0.60;;
77432;SDS011;66752;48.576;8.876;2023-11-19T09:38:51;2.08;;;0.68;;
77432;SDS011;66752;48.576;8.876;2023-11-19T09:41:17;2.42;;;0.70;;
77432;SDS011;66752;48.576;8.876;2023-11-19T09:43:44;4.55;;;1.17;;
77432;SDS011;66752;48.576;8.876;2023-11-19T09:46:11;1.90;;;0.85;;
77432;SDS011;66752;48.576;8.876;2023-11-19T09:48:38;2.42;;;0.80;;
77432;SDS011;66752;48.576;8.876;2023-11-19T09:51:08;3.75;;;1.20;;
77432;SDS011;66752;48.576;8.876;2023-11-19T09:53:35;2.38;;;0.80;;
77432;SDS011;66752;48.576;8.876;2023-11-19T09:58:28;4.03;;;1.20;;
77432;SDS011;66752;48.576;8.876;2023-11-19T10:00:54;2.90;;;0.80;;
77432;SDS011;66752;48.576;8.876;2023-11-19T10:03:23;1.92;;;0.68;;
77432;SDS011;66752;48.576;8.876;2023-11-19T10:05:49;2.45;;;0.70;;
77432;SDS011;66752;48.576;8.876;2023-11-19T10:08:15;2.75;;;0.60;;
77432;SDS011;66752;48.576;8.876;2023-11-19T10:10:42;3.25;;;1.10;;
77432;SDS011;66752;48.576;8.876;2023-11-19T10:13:08;5.20;;;2.47;;
77432;SDS011;66752;48.576;8.876;2023-11-19T10:15:35;4.63;;;2.92;;
77432;SDS011;66752;48.576;8.876;2023-11-19T10:18:02;6.43;;;3.42;;
77432;SDS011;66752;48.576;8.876;2023-11-19T10:20:37;8.52;;;5.72;;
77432;SDS011;66752;48.576;8.876;2023-11-19T10:23:03;4.50;;;2.65;;
77432;SDS011;66752;48.576;8.876;2023-11-19T10:25:29;3.47;;;1.65;;
77432;SDS011;66752;48.576;8.876;2023-11-19T10:27:56;3.20;;;1.10;;
77432;SDS011;66752;48.576;8.876;2023-11-19T10:30:23;2.58;;;0.98;;
77432;SDS011;66752;48.576;8.876;2023-11-19T10:35:34;3.72;;;1.70;;
77432;SDS011;66752;48.576;8.876;2023-11-19T10:38:21;2.92;;;1.30;;
77432;SDS011;66752;48.576;8.876;2023-11-19T10:40:47;3.40;;;1.50;;
77432;SDS011;66752;48.576;8.876;2023-11-19T10:43:13;2.72;;;1.00;;
77432;SDS011;66752;48.576;8.876;2023-11-19T10:45:39;2.55;;;0.82;;
77432;SDS011;66752;48.576;8.876;2023-11-19T10:48:06;2.42;;;0.90;;
77432;SDS011;66752;48.576;8.876;2023-11-19T10:50:33;2.53;;;0.73;;
77432;SDS011;66752;48.576;8.876;2023-11-19T10:52:59;1.55;;;0.63;;
77432;SDS011;66752;48.576;8.876;2023-11-19T10:55:29;2.67;;;0.90;;
77432;SDS011;66752;48.576;8.876;2023-11-19T10:58:00;2.67;;;1.02;;
77432;SDS011;66752;48.576;8.876;2023-11-19T11:00:28;3.05;;;0.70;;
77432;SDS011;66752;48.576;8.876;2023-11-19T11:02:56;2.95;;;1.08;;
77432;SDS011;66752;48.576;8.876;2023-11-19T11:05:26;3.03;;;1.00;;
77432;SDS011;66752;48.576;8.876;2023-11-19T11:07:52;3.50;;;1.73;;
77432;SDS011;66752;48.576;8.876;2023-11-19T11:10:21;4.00;;;1.20;;
77432;SDS011;66752;48.576;8.876;2023-11-19T11:12:51;4.18;;;1.63;;
77432;SDS011;66752;48.576;8.876;2023-11-19T11:15:22;2.33;;;0.80;;
77432;SDS011;66752;48.576;8.876;2023-11-19T11:17:50;3.65;;;1.50;;
77432;SDS011;66752;48.576;8.876;2023-11-19T11:20:17;3.70;;;1.70;;
77432;SDS011;66752;48.576;8.876;2023-11-19T11:30:46;3.40;;;1.20;;
77432;SDS011;66752;48.576;8.876;2023-11-19T11:38:30;0.80;;;0.40;;
77432;SDS011;66752;48.576;8.876;2023-11-19T11:43:48;3.28;;;1.50;;
77432;SDS011;66752;48.576;8.876;2023-11-19T11:46:53;4.05;;;1.75;;
77432;SDS011;66752;48.576;8.876;2023-11-19T11:49:05;3.80;;;1.65;;
77432;SDS011;66752;48.576;8.876;2023-11-19T11:54:09;3.55;;;1.15;;
77432;SDS011;66752;48.576;8.876;2023-11-19T11:56:38;2.55;;;0.90;;
77432;SDS011;66752;48.576;8.876;2023-11-19T11:59:08;3.35;;;1.13;;
77432;SDS011;66752;48.576;8.876;2023-11-19T12:01:34;4.63;;;3.05;;
77432;SDS011;66752;48.576;8.876;2023-11-19T12:04:00;3.20;;;1.65;;
77432;SDS011;66752;48.576;8.876;2023-11-19T12:06:27;3.72;;;1.30;;
77432;SDS011;66752;48.576;8.876;2023-11-19T12:08:57;3.05;;;1.40;;
77432;SDS011;66752;48.576;8.876;2023-11-19T12:11:25;3.38;;;1.45;;
77432;SDS011;66752;48.576;8.876;2023-11-19T12:13:52;1.85;;;0.70;;
77432;SDS011;66752;48.576;8.876;2023-11-19T12:16:21;2.80;;;0.90;;
77432;SDS011;66752;48.576;8.876;2023-11-19T12:18:47;3.20;;;1.00;;
77432;SDS011;66752;48.576;8.876;2023-11-19T12:21:27;2.03;;;0.70;;
77432;SDS011;66752;48.576;8.876;2023-11-19T12:23:54;2.67;;;0.70;;
77432;SDS011;66752;48.576;8.876;2023-11-19T12:26:33;3.22;;;0.80;;
77432;SDS011;66752;48.576;8.876;2023-11-19T12:28:59;1.95;;;0.63;;
77432;SDS011;66752;48.576;8.876;2023-11-19T12:31:25;1.63;;;0.60;;
77432;SDS011;66752;48.576;8.876;2023-11-19T12:33:51;2.30;;;0.80;;
77432;SDS011;66752;48.576;8.876;2023-11-19T12:36:18;2.55;;;0.70;;
77432;SDS011;66752;48.576;8.876;2023-11-19T12:38:44;2.58;;;0.90;;
77432;SDS011;66752;48.576;8.876;2023-11-19T12:41:11;2.88;;;0.77;;
77432;SDS011;66752;48.576;8.876;2023-11-19T12:43:38;1.30;;;0.52;;
77432;SDS011;66752;48.576;8.876;2023-11-19T12:46:17;3.05;;;0.65;;
77432;SDS011;66752;48.576;8.876;2023-11-19T12:48:44;2.17;;;0.63;;
77432;SDS011;66752;48.576;8.876;2023-11-19T12:51:11;3.40;;;0.80;;
77432;SDS011;66752;48.576;8.876;2023-11-19T12:56:08;2.35;;;0.90;;
77432;SDS011;66752;48.576;8.876;2023-11-19T12:58:35;2.75;;;0.60;;
77432;SDS011;66752;48.576;8.876;2023-11-19T13:03:31;2.67;;;1.00;;
77432;SDS011;66752;48.576;8.876;2023-11-19T13:06:03;1.73;;;0.65;;
77432;SDS011;66752;48.576;8.876;2023-11-19T13:09:03;2.53;;;0.85;;
77432;SDS011;66752;48.576;8.876;2023-11-19T13:11:32;3.72;;;1.10;;
77432;SDS011;66752;48.576;8.876;2023-11-19T13:14:04;2.97;;;0.77;;
77432;SDS011;66752;48.576;8.876;2023-11-19T13:16:33;5.80;;;1.33;;
77432;SDS011;66752;48.576;8.876;2023-11-19T13:19:01;1.65;;;0.60;;
77432;SDS011;66752;48.576;8.876;2023-11-19T13:21:27;4.15;;;1.10;;
77432;SDS011;66752;48.576;8.876;2023-11-19T13:23:54;2.17;;;0.80;;
77432;SDS011;66752;48.576;8.876;2023-11-19T13:26:20;1.65;;;0.68;;
77432;SDS011;66752;48.576;8.876;2023-11-19T13:28:46;3.00;;;0.88;;
77432;SDS011;66752;48.576;8.876;2023-11-19T13:31:12;2.70;;;0.80;;
77432;SDS011;66752;48.576;8.876;2023-11-19T13:33:39;2.60;;;0.90;;
77432;SDS011;66752;48.576;8.876;2023-11-19T13:36:05;4.28;;;2.22;;
77432;SDS011;66752;48.576;8.876;2023-11-19T13:38:32;3.38;;;1.38;;
77432;SDS011;66752;48.576;8.876;2023-11-19T13:40:59;2.30;;;0.80;;
77432;SDS011;66752;48.576;8.876;2023-11-19T13:43:25;3.25;;;1.30;;
77432;SDS011;66752;48.576;8.876;2023-11-19T13:45:53;5.22;;;1.55;;
77432;SDS011;66752;48.576;8.876;2023-11-19T13:48:19;3.42;;;0.80;;
77432;SDS011;66752;48.576;8.876;2023-11-19T13:50:45;3.65;;;1.10;;
77432;SDS011;66752;48.576;8.876;2023-11-19T13:53:10;3.55;;;1.20;;
77432;SDS011;66752;48.576;8.876;2023-11-19T13:55:37;2.97;;;1.20;;
77432;SDS011;66752;48.576;8.876;2023-11-19T13:58:03;5.45;;;1.83;;
77432;SDS011;66752;48.576;8.876;2023-11-19T14:00:29;2.67;;;1.05;;
77432;SDS011;66752;48.576;8.876;2023-11-19T14:02:54;3.50;;;1.30;;
77432;SDS011;66752;48.576;8.876;2023-11-19T14:05:20;5.57;;;2.72;;
77432;SDS011;66752;48.576;8.876;2023-11-19T14:07:48;3.95;;;1.98;;
77432;SDS011;66752;48.576;8.876;2023-11-19T14:10:14;3.42;;;1.30;;
77432;SDS011;66752;48.576;8.876;2023-11-19T14:15:06;3.50;;;0.85;;
77432;SDS011;66752;48.576;8.876;2023-11-19T14:17:34;4.00;;;1.83;;
77432;SDS011;66752;48.576;8.876;2023-11-19T14:20:00;3.10;;;0.93;;
77432;SDS011;66752;48.576;8.876;2023-11-19T14:22:26;3.50;;;1.10;;
77432;SDS011;66752;48.576;8.876;2023-11-19T14:24:52;3.97;;;1.23;;
77432;SDS011;66752;48.576;8.876;2023-11-19T14:27:18;2.17;;;0.70;;
77432;SDS011;66752;48.576;8.876;2023-11-19T14:29:44;3.05;;;1.23;;
77432;SDS011;66752;48.576;8.876;2023-11-19T14:32:10;5.80;;;1.88;;
77432;SDS011;66752;48.576;8.876;2023-11-19T14:34:36;3.05;;;1.20;;
77432;SDS011;66752;48.576;8.876;2023-11-19T14:37:03;1.65;;;0.57;;
77432;SDS011;66752;48.576;8.876;2023-11-19T14:39:29;2.60;;;0.75;;
77432;SDS011;66752;48.576;8.876;2023-11-19T14:41:56;2.92;;;0.70;;
77432;SDS011;66752;48.576;8.876;2023-11-19T14:44:26;1.73;;;0.70;;
77432;SDS011;66752;48.576;8.876;2023-11-19T14:46:52;1.75;;;0.70;;
77432;SDS011;66752;48.576;8.876;2023-11-19T14:49:18;5.10;;;0.70;;
77432;SDS011;66752;48.576;8.876;2023-11-19T14:51:44;3.38;;;1.13;;
77432;SDS011;66752;48.576;8.876;2023-11-19T14:54:09;3.60;;;1.17;;
77432;SDS011;66752;48.576;8.876;2023-11-19T14:56:35;2.65;;;1.00;;
77432;SDS011;66752;48.576;8.876;2023-11-19T14:59:03;2.30;;;0.90;;
77432;SDS011;66752;48.576;8.876;2023-11-19T15:01:29;2.47;;;0.85;;
77432;SDS011;66752;48.576;8.876;2023-11-19T15:03:55;4.88;;;2.13;;
77432;SDS011;66752;48.576;8.876;2023-11-19T15:06:25;3.85;;;1.35;;
77432;SDS011;66752;48.576;8.876;2023-11-19T15:08:52;4.10;;;1.17;;
77432;SDS011;66752;48.576;8.876;2023-11-19T15:11:18;3.83;;;1.33;;
77432;SDS011;66752;48.576;8.876;2023-11-19T15:13:44;3.90;;;1.55;;
77432;SDS011;66752;48.576;8.876;2023-11-19T15:16:10;2.92;;;0.80;;
77432;SDS011;66752;48.576;8.876;2023-11-19T15:18:37;2.67;;;1.20;;
77432;SDS011;66752;48.576;8.876;2023-11-19T15:21:03;1.85;;;0.70;;
77432;SDS011;66752;48.576;8.876;2023-11-19T15:23:29;1.88;;;0.60;;
77432;SDS011;66752;48.576;8.876;2023-11-19T15:25:55;2.50;;;0.60;;
77432;SDS011;66752;48.576;8.876;2023-11-19T15:28:21;2.28;;;0.63;;
77432;SDS011;66752;48.576;8.876;2023-11-19T15:30:48;2.42;;;0.70;;
77432;SDS011;66752;48.576;8.876;2023-11-19T15:33:14;2.25;;;0.80;;
77432;SDS011;66752;48.576;8.876;2023-11-19T15:35:40;3.33;;;0.80;;
77432;SDS011;66752;48.576;8.876;2023-11-19T15:38:06;1.45;;;0.68;;
77432;SDS011;66752;48.576;8.876;2023-11-19T15:40:34;3.83;;;0.90;;